createdAt,value
2023-03-08T00:00:01.261Z,97204.58
2023-03-08T00:05:21.294Z,97205.15
2023-03-08T00:10:29.163Z,97207.89
2023-03-08T00:15:48.090Z,97208.26
2023-03-08T00:21:26.620Z,97219.20
2023-03-08T00:44:23.716Z,97212.91
2023-03-08T00:49:57.672Z,97212.98
2023-03-08T00:55:16.036Z,97210.55
2023-03-08T01:00:21.296Z,97211.75
2023-03-08T01:05:28.924Z,97214.64
2023-03-08T01:10:32.575Z,97216.23
2023-03-08T01:15:39.150Z,97213.66
2023-03-08T01:20:44.870Z,97211.27
2023-03-08T01:26:06.608Z,97212.52
2023-03-08T02:45:59.696Z,97202.58
2023-03-08T02:52:03.738Z,97202.56
2023-03-08T04:02:04.940Z,97276.75
2023-03-08T04:07:38.548Z,97294.46
2023-03-08T04:13:01.193Z,97306.64
2023-03-08T04:18:19.182Z,97319.57
2023-03-08T04:56:03.976Z,97359.33
2023-03-08T05:01:36.335Z,97360.52
2023-03-08T05:07:09.815Z,97373.55
2023-03-08T05:12:21.141Z,97374.34
2023-03-08T05:17:37.917Z,97373.81
2023-03-08T05:23:15.967Z,97380.95
2023-03-08T05:29:16.005Z,97370.58
2023-03-08T05:34:25.666Z,97388.28
2023-03-08T05:46:07.060Z,97394.58
2023-03-08T05:51:47.481Z,97400.73
2023-03-08T05:57:07.402Z,97395.14
2023-03-08T06:02:41.993Z,97418.55
2023-03-08T06:07:45.601Z,97425.05
2023-03-08T06:12:50.783Z,97436.59
2023-03-08T06:19:03.424Z,97442.56
2023-03-08T06:24:30.650Z,97445.15
2023-03-08T06:31:01.040Z,97443.44
2023-03-08T06:36:23.896Z,97448.64
2023-03-08T06:41:39.217Z,97458.15
2023-03-08T06:47:17.877Z,97469.84
2023-03-08T06:52:38.076Z,97482.52
2023-03-08T06:58:23.269Z,97491.92
2023-03-08T07:03:40.956Z,97503.23
2023-03-08T07:08:49.207Z,97498.21
2023-03-08T07:13:59.867Z,97501.39
2023-03-08T07:25:21.796Z,97504.44
2023-03-08T07:30:30.039Z,97510.33
2023-03-08T07:35:33.141Z,97531.49
2023-03-08T07:41:30.564Z,97523.27
2023-03-08T07:46:52.129Z,97512.21
2023-03-08T07:52:18.477Z,97507.86
2023-03-08T07:58:42.268Z,97505.65
2023-03-08T08:03:19.027Z,97511.55
2023-03-08T08:08:36.517Z,97531.58
2023-03-08T08:14:08.234Z,97540.36
2023-03-08T08:19:23.234Z,97549.23
2023-03-08T08:24:32.261Z,97547.91
2023-03-08T08:29:52.418Z,97554.09
2023-03-08T08:35:00.537Z,97555.05
2023-03-08T08:52:11.819Z,97535.36
2023-03-08T08:57:29.996Z,97532.96
2023-03-08T09:02:48.735Z,97534.16
2023-03-08T09:08:19.459Z,97526.69
2023-03-08T09:14:20.706Z,97520.49
2023-03-08T09:30:55.989Z,97526.27
2023-03-08T09:36:02.048Z,97514.36
2023-03-08T09:47:27.516Z,97516.70
2023-03-08T09:52:39.167Z,97528.76
2023-03-08T10:02:05.029Z,97530.91
2023-03-08T10:07:24.459Z,97526.33
2023-03-08T10:12:38.597Z,97519.81
2023-03-08T10:17:44.867Z,97511.21
2023-03-08T10:22:56.503Z,97518.58
2023-03-08T10:28:03.676Z,97517.23
2023-03-08T10:33:12.759Z,97522.27
2023-03-08T10:38:17.512Z,97517.40
2023-03-08T10:43:46.371Z,97504.59
2023-03-08T10:48:50.499Z,97495.14
2023-03-08T10:54:05.218Z,97497.64
2023-03-08T10:59:21.163Z,97496.55
2023-03-08T11:04:26.614Z,97491.85
2023-03-08T11:09:36.964Z,97480.16
2023-03-08T11:14:41.843Z,97475.45
2023-03-08T11:20:12.391Z,97480.81
2023-03-08T11:25:26.077Z,97471.20
2023-03-08T11:30:53.822Z,97467.54
2023-03-08T11:36:13.045Z,97465.75
2023-03-08T11:41:16.831Z,97456.02
2023-03-08T11:46:19.979Z,97455.27
2023-03-08T11:51:41.749Z,97455.71
2023-03-08T11:56:51.176Z,97452.11
2023-03-08T12:02:03.624Z,97447.09
2023-03-08T12:07:16.086Z,97447.09
2023-03-08T12:12:28.466Z,97446.66
2023-03-08T12:17:39.557Z,97444.21
2023-03-08T12:22:43.760Z,97448.11
2023-03-08T12:27:53.609Z,97448.16
2023-03-08T12:32:59.313Z,97438.07
2023-03-08T12:38:33.056Z,97420.08
2023-03-08T12:43:38.401Z,97414.91
2023-03-08T12:48:47.367Z,97409.27
2023-03-08T12:53:51.746Z,97403.25
2023-03-08T12:58:57.867Z,97395.33
2023-03-08T13:04:08.162Z,97386.36
2023-03-08T13:09:34.357Z,97383.91
2023-03-08T13:21:31.568Z,97382.20
2023-03-08T13:26:51.110Z,97372.33
2023-03-08T13:31:56.222Z,97366.35
2023-03-08T13:36:59.869Z,97356.29
2023-03-08T13:42:08.728Z,97349.62
2023-03-08T13:47:30.645Z,97349.50
2023-03-08T13:52:39.454Z,97340.27
2023-03-08T13:57:43.117Z,97330.87
2023-03-08T14:02:47.747Z,97322.83
2023-03-08T14:08:10.064Z,97312.69
2023-03-08T14:13:24.950Z,97307.52
2023-03-08T14:18:33.824Z,97303.45
2023-03-08T14:23:45.707Z,97294.90
2023-03-08T14:28:49.400Z,97289.21
2023-03-08T14:34:22.094Z,97279.81
2023-03-08T14:39:31.104Z,97266.89
2023-03-08T14:44:35.382Z,97261.13
2023-03-08T14:49:38.941Z,97252.55
2023-03-08T14:54:42.665Z,97247.19
2023-03-08T14:59:47.573Z,97236.17
2023-03-08T15:04:51.524Z,97228.67
2023-03-08T15:09:54.865Z,97220.14
2023-03-08T15:14:58.307Z,97215.32
2023-03-08T15:20:02.030Z,97213.67
2023-03-08T15:25:13.930Z,97215.08
2023-03-08T15:30:23.607Z,97208.98
2023-03-08T15:35:27.552Z,97218.32
2023-03-08T15:40:33.525Z,97226.36
2023-03-08T15:45:37.404Z,97225.41
2023-03-08T15:50:41.258Z,97228.48
2023-03-08T15:55:44.732Z,97230.25
2023-03-08T16:00:49.416Z,97222.70
2023-03-08T16:05:56.220Z,97224.17
2023-03-08T16:11:04.464Z,97219.48
2023-03-08T16:16:08.529Z,97227.30
2023-03-08T16:21:12.955Z,97232.52
2023-03-08T16:26:17.729Z,97237.92
2023-03-08T16:31:22.529Z,97234.67
2023-03-08T16:36:26.147Z,97236.61
2023-03-08T16:41:30.245Z,97235.02
2023-03-08T16:46:34.043Z,97234.67
2023-03-08T16:51:38.496Z,97236.83
2023-03-08T16:56:43.441Z,97239.95
2023-03-08T17:01:47.745Z,97245.19
2023-03-08T17:06:51.077Z,97245.79
2023-03-08T17:11:54.404Z,97244.48
2023-03-08T17:16:59.937Z,97246.44
2023-03-08T17:22:03.841Z,97245.41
2023-03-08T17:27:07.313Z,97243.27
2023-03-08T17:32:10.723Z,97237.52
2023-03-08T17:37:16.005Z,97231.17
2023-03-08T17:42:19.464Z,97229.04
2023-03-08T17:47:22.902Z,97220.14
2023-03-08T17:52:26.600Z,97210.02
2023-03-08T17:57:30.281Z,97205.13
2023-03-08T18:02:34.719Z,97194.84
2023-03-08T18:07:41.308Z,97185.95
2023-03-08T18:12:45.125Z,97178.30
2023-03-08T18:17:48.784Z,97170.54
2023-03-08T18:22:53.130Z,97166.85
2023-03-08T18:27:56.586Z,97164.19
2023-03-08T18:33:00.128Z,97153.86
2023-03-08T18:38:04.280Z,97139.66
2023-03-08T18:43:07.778Z,97129.77
2023-03-08T18:48:11.133Z,97126.41
2023-03-08T18:53:15.882Z,97112.76
2023-03-08T18:58:18.966Z,97103.93
2023-03-08T19:03:22.099Z,97093.34
2023-03-08T19:08:29.133Z,97080.27
2023-03-08T19:13:32.685Z,97072.94
2023-03-08T19:18:35.789Z,97064.19
2023-03-08T19:23:39.134Z,97058.27
2023-03-08T19:28:42.459Z,97051.39
2023-03-08T19:33:50.013Z,97049.55
2023-03-08T19:38:57.019Z,97039.16
2023-03-08T19:44:01.260Z,97043.20
2023-03-08T19:49:06.673Z,97038.46
2023-03-08T19:54:10.019Z,97025.83
2023-03-08T19:59:13.498Z,97017.52
2023-03-08T20:04:16.854Z,97009.27
2023-03-08T20:09:24.165Z,97009.34
2023-03-08T20:14:28.247Z,96999.25
2023-03-08T20:19:34.131Z,96992.30
2023-03-08T20:24:37.985Z,96978.05
2023-03-08T20:29:41.355Z,96976.16
2023-03-08T20:34:44.937Z,96969.89
2023-03-08T20:39:52.882Z,96966.22
2023-03-08T20:44:56.257Z,96954.13
2023-03-08T20:50:00.168Z,96952.16
2023-03-08T20:55:03.741Z,96939.92
2023-03-08T21:00:09.592Z,96936.19
2023-03-08T21:05:12.830Z,96926.23
2023-03-08T21:10:16.664Z,96926.89
2023-03-08T21:15:20.075Z,96922.16
2023-03-08T21:20:23.645Z,96916.39
2023-03-08T21:25:27.244Z,96916.48
2023-03-08T21:30:31.054Z,96905.20
2023-03-08T21:35:41.561Z,96896.80
2023-03-08T21:40:44.964Z,96890.30
2023-03-08T21:45:48.489Z,96882.71
2023-03-08T21:50:51.982Z,96886.22
2023-03-08T21:55:55.513Z,96885.67
2023-03-08T22:01:07.713Z,96882.14
2023-03-08T22:06:13.275Z,96877.44
2023-03-08T22:11:20.749Z,96876.42
2023-03-08T22:16:25.616Z,96871.50
2023-03-08T22:21:29.652Z,96868.55
2023-03-08T22:26:33.022Z,96861.98
2023-03-08T22:31:36.607Z,96857.93
2023-03-08T22:36:40.027Z,96861.54
2023-03-08T22:41:43.772Z,96860.20
2023-03-08T22:46:48.075Z,96861.42
2023-03-08T22:51:52.746Z,96864.03
2023-03-08T22:56:56.673Z,96864.52
2023-03-08T23:02:00.168Z,96866.45
2023-03-08T23:07:03.864Z,96863.81
2023-03-08T23:12:07.502Z,96863.90
2023-03-08T23:17:10.953Z,96863.02
2023-03-08T23:22:14.734Z,96860.52
2023-03-08T23:27:18.300Z,96864.36
2023-03-08T23:32:21.669Z,96858.45
2023-03-08T23:37:25.680Z,96858.80
2023-03-08T23:42:29.239Z,96850.12
2023-03-08T23:47:33.722Z,96850.14
2023-03-08T23:52:37.243Z,96850.19
2023-03-08T23:57:40.662Z,96851.11
